KMPV/MPV METAR and TAF weather

Enter ICAO airport designator
Station Type Date Time Source
KMPV METAR 2021/04/13 06:51 UTC NOAA

KMPV 130651Z AUTO 00000KT 10SM BKN043 OVC050 03/03 A3003 RMK AO2 SLP176 T00280028


Station Type Date Time Source
KMPV Decoded METAR 2021/04/13 06:51 UTC NOAA

KNAPP STATE AIRPORT, VT, United States (KMPV) 44-12N 072-34W 343M
Apr 13, 2021 - 02:51 AM EDT / 2021.04.13 0651 UTC
Wind: Calm:0
Visibility: 10 mile(s):0
Sky conditions: overcast
Temperature: 37.0 F (2.8 C)
Dew Point: 37.0 F (2.8 C)
Relative Humidity: 100%
Pressure (altimeter): 30.03 in. Hg (1016 hPa)
ob: KMPV 130651Z AUTO 00000KT 10SM BKN043 OVC050 03/03 A3003 RMK AO2 SLP176 T00280028
cycle: 7

Station Type Date Time Source
KMPV TAF 2021/04/13 06:28 UTC NOAA

TAF KMPV 130526Z 1306/1406 00000KT P6SM FEW060
FM131000 VRB04KT P6SM SCT035
FM131500 03005KT P6SM SCT050
FM140000 00000KT P6SM SCT100

Example: see airport list